Capitol Logistics 3279




TIST
Cyril E King Airport
Charlotte Amalie, VI
TJSJ
Luis Munoz Marin International Airport
San Juan, PR

Activity Log

Date Flight Route Aircraft Duration
No Flights Yet

Route Details

Aircraft Information
Primary: Saab 340AF
Backup: Not Available
Route Data
Distance: 68nm
Duration: 0h 37m
Recm'd Route: PALCO7 PALCO RTE6 SJU
Origin Wx: TIST 191153Z 09016G21KT 10SM -RA CLR 29/22 A3009 RMK AO2 RAB30 SLP191 P0000 60000 70002 T02940222 10294 20267 51013
Dest. Wx: TJSJ 191156Z 10009KT 9SM FEW033 SCT080 SCT120 28/23 A3011 RMK AO2 SLP196 HZ ALQDS 60000 T02780228 10278 20256 53012
Notes: